createdAt,value
2023-05-25T00:02:07.726Z,93.30
2023-05-25T00:04:35.160Z,93.30
2023-05-25T00:07:02.866Z,93.30
2023-05-25T00:09:29.989Z,93.30
2023-05-25T00:11:58.364Z,93.30
2023-05-25T00:14:25.852Z,93.30
2023-05-25T00:16:55.012Z,93.40
2023-05-25T00:19:22.292Z,93.30
2023-05-25T00:21:50.125Z,93.40
2023-05-25T00:24:17.033Z,93.40
2023-05-25T00:26:44.013Z,93.70
2023-05-25T00:29:11.242Z,93.40
2023-05-25T00:31:38.879Z,93.40
2023-05-25T00:34:05.915Z,93.40
2023-05-25T00:36:32.835Z,93.40
2023-05-25T00:38:59.765Z,93.40
2023-05-25T00:41:27.698Z,93.40
2023-05-25T00:43:56.892Z,93.40
2023-05-25T00:46:24.128Z,93.40
2023-05-25T00:48:54.835Z,93.40
2023-05-25T00:51:22.516Z,93.40
2023-05-25T00:53:49.705Z,93.80
2023-05-25T00:56:23.226Z,93.40
2023-05-25T00:58:58.014Z,93.50
2023-05-25T01:01:27.419Z,93.80
2023-05-25T01:03:56.214Z,93.40
2023-05-25T01:06:23.635Z,93.40
2023-05-25T01:08:54.045Z,93.40
2023-05-25T01:11:23.327Z,93.40
2023-05-25T01:13:52.990Z,93.40
2023-05-25T01:16:21.180Z,93.40
2023-05-25T01:18:52.929Z,93.40
2023-05-25T01:21:23.173Z,93.40
2023-05-25T01:24:49.196Z,93.40
2023-05-25T01:27:34.743Z,93.40
2023-05-25T01:30:25.360Z,93.40
2023-05-25T01:32:53.386Z,93.50
2023-05-25T01:35:21.324Z,93.50
2023-05-25T01:37:49.386Z,93.50
2023-05-25T01:40:16.524Z,93.50
2023-05-25T01:42:43.535Z,93.50
2023-05-25T01:45:11.932Z,93.50
2023-05-25T01:47:49.175Z,93.60
2023-05-25T01:50:16.311Z,93.70
2023-05-25T01:52:46.246Z,93.60
2023-05-25T01:55:15.409Z,93.50
2023-05-25T01:57:43.513Z,93.60
2023-05-25T02:00:11.975Z,93.60
2023-05-25T02:02:45.755Z,93.60
2023-05-25T02:05:13.740Z,93.70
2023-05-25T02:07:40.738Z,93.70
2023-05-25T02:10:07.988Z,93.70
2023-05-25T02:12:35.171Z,93.70
2023-05-25T04:50:31.057Z,94.30
2023-05-25T04:52:58.232Z,94.30
2023-05-25T04:55:25.587Z,94.30
2023-05-25T04:57:53.611Z,94.40
2023-05-25T05:00:20.726Z,94.30
2023-05-25T05:48:59.468Z,94.90
2023-05-25T06:01:36.284Z,94.80
2023-05-25T06:06:54.372Z,94.80
2023-05-25T06:09:21.621Z,94.70
2023-05-25T06:11:50.767Z,94.70
2023-05-25T06:14:18.290Z,94.60
2023-05-25T06:23:11.554Z,94.60
2023-05-25T06:25:38.550Z,94.50
2023-05-25T06:28:05.847Z,94.50
2023-05-25T06:30:33.120Z,94.50
2023-05-25T14:18:38.793Z,93.10
2023-05-25T14:28:35.185Z,93.00
2023-05-25T14:46:49.676Z,92.90
2023-05-25T14:49:17.605Z,92.90
2023-05-25T15:30:00.304Z,92.90
2023-05-25T15:51:02.806Z,92.90
2023-05-25T15:57:39.366Z,92.90
2023-05-25T16:00:06.959Z,92.90
2023-05-25T16:02:34.121Z,92.90
2023-05-25T16:05:01.241Z,92.80
2023-05-25T16:07:28.155Z,92.90
2023-05-25T16:09:55.160Z,92.80
2023-05-25T16:13:35.277Z,92.90
2023-05-25T17:11:29.659Z,93.00
2023-05-25T17:14:58.546Z,93.00
2023-05-25T17:18:08.426Z,93.10
2023-05-25T17:21:17.342Z,93.10
2023-05-25T17:29:42.596Z,93.10
2023-05-25T17:32:12.964Z,93.10
2023-05-25T17:37:50.714Z,93.10
2023-05-25T17:40:25.489Z,93.20
2023-05-25T17:42:54.478Z,93.10
2023-05-25T17:45:21.485Z,93.10
2023-05-25T17:47:48.411Z,93.20
2023-05-25T17:50:15.418Z,93.10
2023-05-25T17:56:12.098Z,93.20
2023-05-25T18:04:57.825Z,93.20
2023-05-25T18:18:10.457Z,93.10
2023-05-25T22:45:36.542Z,93.80
2023-05-25T23:57:10.939Z,93.70
